Time;durP1;ratioP1;P1;durP2;ratioP2;P2;SDS_P1;SDS_P2;PMS_P1;PMS_P2;Temp;Humidity;BMP_temperature;BMP_pressure;BME280_temperature;BME280_humidity;BME280_pressure;Samples;Min_cycle;Max_cycle;Signal;HPM_P1;HPM_P2
2021/11/11 00:00:43;;;;;;;25.10;3.47;;;20.00;99.90;;;;;;5068758;28;20183;-68
2021/11/11 00:03:11;;;;;;;19.37;3.83;;;20.00;99.90;;;;;;5067011;28;20927;-69
2021/11/11 00:05:39;;;;;;;18.77;3.47;;;20.20;99.90;;;;;;5067961;28;21961;-71
2021/11/11 00:08:06;;;;;;;21.17;3.43;;;20.10;99.90;;;;;;5067721;28;20236;-72
2021/11/11 00:10:34;;;;;;;16.33;3.27;;;19.90;99.90;;;;;;5070464;28;20182;-73
2021/11/11 00:13:02;;;;;;;14.83;3.13;;;19.80;99.90;;;;;;5071226;28;20292;-74
2021/11/11 00:15:31;;;;;;;21.27;3.47;;;19.60;99.90;;;;;;5069819;28;20190;-71
2021/11/11 00:17:59;;;;;;;18.07;3.10;;;19.70;99.90;;;;;;5071065;28;20274;-73
2021/11/11 00:20:28;;;;;;;21.87;2.90;;;19.70;99.90;;;;;;5071104;28;20229;-71
2021/11/11 00:22:57;;;;;;;24.30;3.67;;;19.70;99.90;;;;;;5072794;28;20602;-69
2021/11/11 00:25:25;;;;;;;30.93;5.13;;;19.50;99.90;;;;;;5077651;28;20214;-70
2021/11/11 00:27:53;;;;;;;21.37;3.23;;;19.50;99.90;;;;;;5070425;28;20205;-72
2021/11/11 00:30:21;;;;;;;20.73;3.40;;;19.70;99.90;;;;;;5070773;28;20513;-72
2021/11/11 00:32:50;;;;;;;27.10;3.63;;;19.70;99.90;;;;;;5073293;28;20197;-71
2021/11/11 00:35:20;;;;;;;18.13;4.30;;;19.70;99.90;;;;;;5073333;28;20183;-73
2021/11/11 00:37:47;;;;;;;22.20;4.10;;;19.60;99.90;;;;;;5064461;28;20190;-68
2021/11/11 00:40:16;;;;;;;16.93;2.67;;;19.50;99.90;;;;;;5081388;28;20209;-74
2021/11/11 00:42:45;;;;;;;22.20;3.43;;;19.70;99.90;;;;;;5069427;28;20252;-69
2021/11/11 00:45:13;;;;;;;16.80;3.07;;;19.90;99.90;;;;;;5070668;28;20249;-72
2021/11/11 00:47:42;;;;;;;18.50;3.73;;;20.00;99.90;;;;;;5069051;28;20464;-71
2021/11/11 00:50:11;;;;;;;17.80;3.60;;;20.20;99.90;;;;;;5070911;28;20278;-73
2021/11/11 00:52:39;;;;;;;18.93;3.77;;;20.30;99.90;;;;;;5068492;28;20221;-71
2021/11/11 00:55:07;;;;;;;17.70;2.67;;;20.50;99.90;;;;;;5069580;28;20187;-70
2021/11/11 00:57:35;;;;;;;19.30;4.27;;;20.30;99.90;;;;;;5072038;28;20214;-69
2021/11/11 01:00:04;;;;;;;19.50;3.50;;;20.20;99.90;;;;;;5075647;28;20498;-69
2021/11/11 01:02:34;;;;;;;28.33;3.67;;;20.30;99.90;;;;;;5074155;28;20276;-71
2021/11/11 01:05:01;;;;;;;20.70;3.37;;;20.40;99.90;;;;;;5070634;28;20195;-71
2021/11/11 01:07:29;;;;;;;21.13;3.47;;;20.70;99.90;;;;;;5075501;28;20195;-71
2021/11/11 01:09:57;;;;;;;20.23;3.43;;;20.70;99.90;;;;;;5076872;28;20209;-70
2021/11/11 01:12:24;;;;;;;16.30;2.70;;;20.70;99.90;;;;;;5070540;28;20223;-70
2021/11/11 01:14:51;;;;;;;20.43;3.30;;;20.70;99.90;;;;;;5069622;28;20183;-70
2021/11/11 01:17:19;;;;;;;23.83;3.67;;;20.70;99.90;;;;;;5075351;28;20267;-69
2021/11/11 01:19:46;;;;;;;20.30;3.37;;;20.60;99.90;;;;;;5074287;28;20654;-70
2021/11/11 01:22:14;;;;;;;16.87;3.77;;;20.50;99.90;;;;;;5077302;28;20372;-72
2021/11/11 01:24:41;;;;;;;23.53;3.87;;;20.30;99.90;;;;;;5073492;28;20199;-70
2021/11/11 01:27:09;;;;;;;14.93;2.90;;;20.40;99.90;;;;;;5071514;28;20711;-72
2021/11/11 01:29:36;;;;;;;19.27;3.17;;;20.30;99.90;;;;;;5073514;28;20194;-73
2021/11/11 01:32:04;;;;;;;18.13;3.00;;;20.10;99.90;;;;;;5074381;28;20227;-71
2021/11/11 01:34:31;;;;;;;23.23;3.47;;;20.20;99.90;;;;;;5074539;28;20706;-70
2021/11/11 01:36:58;;;;;;;18.07;2.53;;;20.20;99.90;;;;;;5079501;28;20187;-68
2021/11/11 01:39:26;;;;;;;13.17;3.13;;;20.10;99.90;;;;;;5073726;28;20175;-72
2021/11/11 01:41:53;;;;;;;21.53;3.17;;;20.00;99.90;;;;;;5074547;28;20254;-71
2021/11/11 01:44:22;;;;;;;19.33;3.77;;;20.00;99.90;;;;;;5072943;28;20541;-69
2021/11/11 01:46:49;;;;;;;21.30;3.30;;;19.90;99.90;;;;;;5074144;28;20195;-71
2021/11/11 01:49:17;;;;;;;16.53;3.03;;;19.80;99.90;;;;;;5074479;28;20179;-71
2021/11/11 01:51:48;;;;;;;16.33;3.37;;;19.90;99.90;;;;;;5074481;28;20202;-75
2021/11/11 01:54:17;;;;;;;26.83;3.80;;;19.90;99.90;;;;;;5069605;28;21007;-69
2021/11/11 01:56:44;;;;;;;18.63;3.70;;;19.80;99.90;;;;;;5067205;28;20587;-70
2021/11/11 01:59:12;;;;;;;20.77;4.10;;;19.70;99.90;;;;;;5073986;28;20195;-68
2021/11/11 02:01:40;;;;;;;12.53;2.87;;;19.60;99.90;;;;;;5073601;28;20183;-66
2021/11/11 02:04:08;;;;;;;24.23;4.03;;;19.60;99.90;;;;;;5073473;28;20187;-70
2021/11/11 02:06:35;;;;;;;17.67;3.10;;;19.50;99.90;;;;;;5076156;28;20692;-70
2021/11/11 02:09:03;;;;;;;18.67;4.00;;;19.50;99.90;;;;;;5073017;28;20179;-70
2021/11/11 02:11:30;;;;;;;12.33;2.50;;;19.50;99.90;;;;;;5076272;28;20195;-70
2021/11/11 02:13:58;;;;;;;22.77;3.23;;;19.40;99.90;;;;;;5072644;28;20545;-72
2021/11/11 02:16:25;;;;;;;17.13;2.97;;;19.30;99.90;;;;;;5073354;28;20198;-72
2021/11/11 02:18:53;;;;;;;21.20;3.60;;;19.20;99.90;;;;;;5078386;28;20183;-71
2021/11/11 02:21:20;;;;;;;23.63;3.63;;;19.30;99.90;;;;;;5068888;28;20225;-71
2021/11/11 02:23:48;;;;;;;18.93;3.10;;;19.40;99.90;;;;;;5073187;28;20193;-72
2021/11/11 02:26:15;;;;;;;31.00;3.67;;;19.40;99.90;;;;;;5068105;28;20245;-68
2021/11/11 02:28:42;;;;;;;22.63;3.13;;;19.20;99.90;;;;;;5106240;27;20629;-71
2021/11/11 02:31:10;;;;;;;17.83;3.40;;;19.10;99.90;;;;;;5071794;28;20191;-69
2021/11/11 02:33:38;;;;;;;15.67;2.83;;;19.10;99.90;;;;;;5072296;28;20183;-69
2021/11/11 02:36:05;;;;;;;22.63;3.50;;;19.10;99.90;;;;;;5077765;28;20190;-73
2021/11/11 02:38:32;;;;;;;25.30;4.47;;;19.10;99.90;;;;;;5070421;28;20186;-71
2021/11/11 02:41:02;;;;;;;22.30;2.87;;;19.10;99.90;;;;;;5071230;28;20187;-72
2021/11/11 02:43:31;;;;;;;21.13;2.57;;;19.20;99.90;;;;;;5073933;28;20191;-71
2021/11/11 02:45:58;;;;;;;20.73;3.23;;;19.20;99.90;;;;;;5071886;28;20226;-69
2021/11/11 02:48:26;;;;;;;17.77;3.87;;;19.30;99.90;;;;;;5073277;28;20191;-70
2021/11/11 02:50:54;;;;;;;23.63;3.50;;;19.20;99.90;;;;;;5072173;28;20531;-70
2021/11/11 02:53:22;;;;;;;13.63;2.57;;;19.10;99.90;;;;;;5072853;28;20201;-72
2021/11/11 02:55:50;;;;;;;29.47;3.20;;;19.10;99.90;;;;;;5073237;28;20167;-70
2021/11/11 02:58:18;;;;;;;17.43;3.07;;;19.00;99.90;;;;;;5072447;28;20547;-70
2021/11/11 03:00:53;;;;;;;16.37;2.73;;;19.00;99.90;;;;;;5073054;28;20168;-71
2021/11/11 03:03:20;;;;;;;25.87;3.03;;;18.90;99.90;;;;;;5073282;28;20179;-71
2021/11/11 03:05:48;;;;;;;15.53;3.30;;;18.90;99.90;;;;;;5072790;28;20214;-71
2021/11/11 03:08:15;;;;;;;14.90;3.10;;;18.90;99.90;;;;;;5073229;28;20292;-71
2021/11/11 03:10:43;;;;;;;13.50;3.23;;;18.90;99.90;;;;;;5073070;28;20198;-69
2021/11/11 03:13:12;;;;;;;14.03;2.50;;;18.90;99.90;;;;;;5072192;28;20250;-71
2021/11/11 03:15:42;;;;;;;24.83;3.17;;;19.00;99.90;;;;;;5066857;28;20183;-71
2021/11/11 03:18:11;;;;;;;19.37;3.40;;;19.00;99.90;;;;;;5072872;28;20236;-74
2021/11/11 03:20:38;;;;;;;26.60;4.30;;;19.00;99.90;;;;;;5073599;28;20182;-72
2021/11/11 03:23:07;;;;;;;28.33;2.87;;;19.10;99.90;;;;;;5064855;28;20191;-71
2021/11/11 03:25:36;;;;;;;27.40;2.73;;;19.10;99.90;;;;;;5053215;28;20204;-72
2021/11/11 03:28:04;;;;;;;23.27;3.00;;;19.10;99.90;;;;;;5061389;28;20196;-74
2021/11/11 03:30:32;;;;;;;20.50;3.00;;;19.10;99.90;;;;;;5071531;28;20661;-71
2021/11/11 03:33:00;;;;;;;19.90;2.90;;;19.10;99.90;;;;;;5072989;28;20163;-68
2021/11/11 03:35:27;;;;;;;24.73;4.27;;;18.90;99.90;;;;;;5072658;28;20508;-70
2021/11/11 03:37:57;;;;;;;21.43;3.47;;;18.70;99.90;;;;;;5072409;28;20633;-70
2021/11/11 03:40:27;;;;;;;22.40;3.47;;;18.40;99.90;;;;;;5071599;28;20175;-70
2021/11/11 03:42:56;;;;;;;25.17;3.53;;;18.30;99.90;;;;;;5071564;28;20190;-71
2021/11/11 03:45:24;;;;;;;18.57;3.50;;;18.30;99.90;;;;;;5057286;28;20203;-71
2021/11/11 03:47:52;;;;;;;29.20;3.57;;;18.40;99.90;;;;;;5066132;28;20721;-69
2021/11/11 03:50:20;;;;;;;23.77;3.50;;;18.30;99.90;;;;;;5071284;28;20642;-69
2021/11/11 03:52:49;;;;;;;27.23;4.60;;;18.20;99.90;;;;;;5071451;28;20258;-70
2021/11/11 03:55:22;;;;;;;24.87;4.13;;;18.20;99.90;;;;;;5072058;28;20214;-70
2021/11/11 03:57:53;;;;;;;20.73;3.30;;;18.10;99.90;;;;;;5070956;28;20179;-71
2021/11/11 04:00:22;;;;;;;17.33;3.17;;;18.00;99.90;;;;;;5068864;28;20178;-70
2021/11/11 04:02:49;;;;;;;21.17;3.70;;;17.90;99.90;;;;;;5069720;28;20172;-70
2021/11/11 04:05:17;;;;;;;26.10;3.73;;;18.00;99.90;;;;;;5071381;28;20202;-70
2021/11/11 04:07:44;;;;;;;21.70;3.90;;;18.00;99.90;;;;;;5071861;28;20189;-71
2021/11/11 04:10:12;;;;;;;18.47;3.23;;;18.00;99.90;;;;;;5072131;28;20182;-73
2021/11/11 04:12:40;;;;;;;26.37;3.57;;;17.90;99.90;;;;;;5070638;28;20720;-70
2021/11/11 04:15:08;;;;;;;20.43;3.20;;;17.90;99.90;;;;;;5057578;28;20187;-72
2021/11/11 04:17:36;;;;;;;18.23;3.13;;;17.80;99.90;;;;;;5056030;28;20277;-71
2021/11/11 04:20:04;;;;;;;26.00;3.43;;;17.80;99.90;;;;;;5072333;28;20183;-70
2021/11/11 04:22:32;;;;;;;25.77;3.33;;;17.80;99.90;;;;;;5067444;28;20182;-72
2021/11/11 04:25:02;;;;;;;22.73;3.90;;;17.80;99.90;;;;;;5064451;28;20209;-70
2021/11/11 04:27:43;;;;;;;17.03;3.63;;;17.70;99.90;;;;;;5066967;28;20629;-71
2021/11/11 04:30:24;;;;;;;21.73;4.03;;;17.70;99.90;;;;;;5069088;28;20197;-71
2021/11/11 04:32:51;;;;;;;17.83;3.70;;;17.70;99.90;;;;;;5064110;28;20218;-70
2021/11/11 04:35:18;;;;;;;19.07;3.40;;;17.70;99.90;;;;;;5070430;28;20213;-71
2021/11/11 04:38:12;;;;;;;17.23;3.30;;;17.70;99.90;;;;;;5063344;28;20206;-71
2021/11/11 04:46:25;;;;;;;23.60;3.90;;;17.60;99.90;;;;;;5065634;28;20223;-71
2021/11/11 04:48:59;;;;;;;20.43;3.47;;;17.60;99.90;;;;;;5063662;28;20190;-72
2021/11/11 05:05:05;;;;;;;20.00;3.53;;;17.60;99.90;;;;;;5072773;28;20207;-70
2021/11/11 05:07:32;;;;;;;19.03;4.13;;;17.60;99.90;;;;;;5076321;28;20193;-72
2021/11/11 05:09:59;;;;;;;13.87;3.63;;;17.60;99.90;;;;;;5073771;28;20197;-72
2021/11/11 05:12:27;;;;;;;17.03;3.27;;;17.60;99.90;;;;;;5074732;28;20234;-71
2021/11/11 05:14:54;;;;;;;16.67;3.23;;;17.70;99.90;;;;;;5074003;28;20575;-68
2021/11/11 05:17:24;;;;;;;14.27;3.27;;;17.70;99.90;;;;;;5072055;28;20185;-71
2021/11/11 05:19:52;;;;;;;17.77;3.50;;;17.70;99.90;;;;;;5074279;28;20225;-72
2021/11/11 05:22:21;;;;;;;16.90;3.07;;;17.60;99.90;;;;;;5079544;28;20190;-69
2021/11/11 05:24:49;;;;;;;8.87;2.83;;;17.60;99.90;;;;;;5074714;28;20186;-73
2021/11/11 05:27:22;;;;;;;20.87;3.67;;;17.60;99.90;;;;;;5071509;28;20538;-72
2021/11/11 05:29:50;;;;;;;17.40;3.03;;;17.60;99.90;;;;;;5078105;28;20248;-72
2021/11/11 05:32:18;;;;;;;20.27;3.97;;;17.60;99.90;;;;;;5070212;28;20206;-73
2021/11/11 05:34:45;;;;;;;20.17;3.50;;;17.70;99.90;;;;;;5073864;28;20190;-71
2021/11/11 05:37:13;;;;;;;20.87;4.30;;;17.60;99.90;;;;;;5073260;28;20272;-71
2021/11/11 05:39:40;;;;;;;18.93;4.00;;;17.60;99.90;;;;;;5077121;28;20186;-71
2021/11/11 05:42:08;;;;;;;17.90;3.80;;;17.60;99.90;;;;;;5077761;28;20182;-69
2021/11/11 05:44:35;;;;;;;12.10;4.07;;;17.60;99.90;;;;;;5067689;28;20199;-71
2021/11/11 05:47:03;;;;;;;18.67;3.63;;;17.50;99.90;;;;;;5070591;28;20182;-70
2021/11/11 05:49:30;;;;;;;22.33;3.80;;;17.50;99.90;;;;;;5072320;28;20218;-71
2021/11/11 05:51:58;;;;;;;20.90;4.10;;;17.50;99.90;;;;;;5068330;28;20782;-69
2021/11/11 05:54:25;;;;;;;21.63;3.50;;;17.60;99.90;;;;;;5074652;28;20190;-71
2021/11/11 05:56:53;;;;;;;16.27;4.63;;;17.60;99.90;;;;;;5073513;28;20281;-69
2021/11/11 05:59:20;;;;;;;19.57;3.67;;;17.60;99.90;;;;;;5071852;28;20167;-72
2021/11/11 06:01:48;;;;;;;22.27;4.07;;;17.60;99.90;;;;;;5074647;28;20183;-71
2021/11/11 06:04:15;;;;;;;17.30;4.00;;;17.50;99.90;;;;;;5075006;28;20181;-72
2021/11/11 06:06:44;;;;;;;11.50;3.90;;;17.50;99.90;;;;;;5074461;28;20219;-71
2021/11/11 06:09:11;;;;;;;18.23;4.40;;;17.50;99.90;;;;;;5075259;28;20189;-70
2021/11/11 06:11:38;;;;;;;17.13;4.33;;;17.40;99.90;;;;;;5074374;28;20187;-71
2021/11/11 06:14:06;;;;;;;19.77;3.97;;;17.30;99.90;;;;;;5072310;28;20550;-70
2021/11/11 06:16:33;;;;;;;15.33;4.07;;;17.20;99.90;;;;;;5074668;28;20269;-71
2021/11/11 06:19:01;;;;;;;16.23;3.87;;;17.30;99.90;;;;;;5074832;28;20171;-70
2021/11/11 06:21:28;;;;;;;14.93;4.53;;;17.30;99.90;;;;;;5073992;28;20731;-68
2021/11/11 06:23:56;;;;;;;13.07;3.57;;;17.30;99.90;;;;;;5073389;28;20254;-71
2021/11/11 06:26:24;;;;;;;20.50;4.47;;;17.30;99.90;;;;;;5073770;28;20717;-71
2021/11/11 06:28:52;;;;;;;20.10;4.17;;;17.20;99.90;;;;;;5074076;28;20171;-72
2021/11/11 06:31:19;;;;;;;19.77;4.97;;;17.20;99.90;;;;;;5074223;28;20633;-71
2021/11/11 06:33:47;;;;;;;18.03;4.37;;;17.20;99.90;;;;;;5074325;28;20174;-69
2021/11/11 06:36:14;;;;;;;19.93;4.87;;;17.30;99.90;;;;;;5065932;28;20196;-68
2021/11/11 06:38:43;;;;;;;15.27;4.00;;;17.30;99.90;;;;;;5065741;28;20511;-71
2021/11/11 06:41:11;;;;;;;17.47;4.57;;;17.30;99.90;;;;;;5065809;28;20543;-71
2021/11/11 06:43:38;;;;;;;15.37;4.43;;;17.30;99.90;;;;;;5070524;28;20171;-71
2021/11/11 06:46:07;;;;;;;19.73;4.40;;;17.30;99.90;;;;;;5073984;28;20239;-70
2021/11/11 06:48:35;;;;;;;14.87;3.57;;;17.20;99.90;;;;;;5073716;28;20545;-71
2021/11/11 06:51:03;;;;;;;15.27;4.00;;;17.30;99.90;;;;;;5073279;28;20182;-70
2021/11/11 06:53:30;;;;;;;15.20;4.23;;;17.20;99.90;;;;;;5067067;28;20206;-70
2021/11/11 06:55:58;;;;;;;21.67;3.70;;;17.20;99.90;;;;;;5073697;28;20221;-68
2021/11/11 06:58:26;;;;;;;25.27;7.30;;;17.20;99.90;;;;;;5073925;28;20206;-71
2021/11/11 07:00:57;;;;;;;22.83;4.17;;;17.20;99.90;;;;;;5073766;28;20171;-72
2021/11/11 07:03:25;;;;;;;17.17;3.87;;;17.10;99.90;;;;;;5073782;28;20174;-70
2021/11/11 07:05:52;;;;;;;10.40;3.47;;;17.20;99.90;;;;;;5072800;28;20214;-72
2021/11/11 07:08:20;;;;;;;16.87;4.40;;;17.10;99.90;;;;;;5072557;28;20186;-73
2021/11/11 07:10:50;;;;;;;22.77;5.50;;;17.10;99.90;;;;;;5073088;28;20181;-73
2021/11/11 07:13:18;;;;;;;16.07;3.73;;;17.20;99.90;;;;;;5072816;28;20296;-71
2021/11/11 07:15:46;;;;;;;16.17;4.60;;;17.20;99.90;;;;;;5072017;28;20196;-71
2021/11/11 07:18:14;;;;;;;16.80;4.17;;;17.10;99.90;;;;;;5072692;28;20175;-71
2021/11/11 07:20:49;;;;;;;20.73;4.50;;;17.10;99.90;;;;;;5073350;28;20533;-72
2021/11/11 07:23:19;;;;;;;15.97;4.00;;;17.10;99.90;;;;;;5072890;28;20177;-69
2021/11/11 07:25:47;;;;;;;20.50;4.77;;;17.10;99.90;;;;;;5072730;28;20688;-71
2021/11/11 07:28:15;;;;;;;17.53;4.80;;;17.20;99.90;;;;;;5073104;28;20179;-70
2021/11/11 07:30:46;;;;;;;16.13;4.47;;;17.20;99.90;;;;;;5072905;28;20176;-70
2021/11/11 07:33:15;;;;;;;17.70;4.60;;;17.10;99.90;;;;;;5073230;28;20179;-72
2021/11/11 07:35:44;;;;;;;18.93;4.43;;;17.20;99.90;;;;;;5073125;28;20529;-70
2021/11/11 07:38:13;;;;;;;22.63;4.90;;;17.20;99.90;;;;;;5072600;28;20167;-70
2021/11/11 07:40:40;;;;;;;13.73;4.27;;;17.20;99.90;;;;;;5073240;28;20179;-71
2021/11/11 07:43:08;;;;;;;24.53;4.40;;;17.20;99.90;;;;;;5068648;28;20179;-71
2021/11/11 07:45:36;;;;;;;17.17;4.30;;;17.20;99.90;;;;;;5072590;28;20209;-69
2021/11/11 07:48:04;;;;;;;20.53;4.93;;;17.20;99.90;;;;;;5071415;28;20255;-69
2021/11/11 07:50:34;;;;;;;16.67;4.43;;;17.20;99.90;;;;;;5071008;28;20979;-69
2021/11/11 07:53:03;;;;;;;17.03;4.20;;;17.30;99.90;;;;;;5067452;28;20221;-71
2021/11/11 07:55:31;;;;;;;16.13;3.97;;;17.20;99.90;;;;;;5056308;28;20187;-71
2021/11/11 07:58:00;;;;;;;17.47;3.83;;;17.10;99.90;;;;;;5052779;28;20189;-71
2021/11/11 08:00:28;;;;;;;18.80;4.47;;;17.10;99.90;;;;;;5071246;28;20193;-71
2021/11/11 08:02:55;;;;;;;18.40;4.13;;;17.10;99.90;;;;;;5072747;28;20189;-71
2021/11/11 08:05:23;;;;;;;14.17;3.13;;;17.10;99.90;;;;;;5072850;28;20210;-71
2021/11/11 08:07:50;;;;;;;16.43;3.57;;;17.10;99.90;;;;;;5071248;28;20281;-69
2021/11/11 08:10:19;;;;;;;20.33;4.07;;;17.00;99.90;;;;;;5064929;28;20184;-69
2021/11/11 08:12:47;;;;;;;13.00;4.07;;;17.00;99.90;;;;;;5072688;28;20277;-71
2021/11/11 08:15:15;;;;;;;13.77;3.47;;;17.00;99.90;;;;;;5072834;28;20630;-70
2021/11/11 08:17:43;;;;;;;19.10;3.43;;;16.90;99.90;;;;;;5072363;28;20229;-70
2021/11/11 08:20:13;;;;;;;14.80;3.50;;;16.90;99.90;;;;;;5071013;28;20550;-69
2021/11/11 08:22:41;;;;;;;16.77;3.60;;;16.90;99.90;;;;;;5063609;28;20178;-72
2021/11/11 08:25:10;;;;;;;18.33;3.37;;;16.90;99.90;;;;;;5064719;28;20560;-70
2021/11/11 08:27:39;;;;;;;14.97;3.43;;;16.90;99.90;;;;;;5070288;28;20216;-69
2021/11/11 08:30:09;;;;;;;15.10;2.93;;;16.80;99.90;;;;;;5067790;28;20182;-72
2021/11/11 08:32:36;;;;;;;16.70;3.80;;;16.80;99.90;;;;;;5068103;28;20177;-70
2021/11/11 08:35:05;;;;;;;22.03;3.07;;;16.70;99.90;;;;;;5072240;28;20181;-75
2021/11/11 08:37:32;;;;;;;16.87;3.50;;;16.60;99.90;;;;;;5071466;28;20213;-76
2021/11/11 08:39:59;;;;;;;17.73;4.03;;;16.50;99.90;;;;;;5071878;28;20181;-75
2021/11/11 08:42:27;;;;;;;10.10;3.17;;;16.30;99.90;;;;;;5066273;28;20171;-68
2021/11/11 08:44:54;;;;;;;16.83;5.53;;;16.30;99.90;;;;;;5065131;28;20585;-77
2021/11/11 08:47:22;;;;;;;15.60;4.07;;;16.20;99.90;;;;;;5071544;28;20781;-72
2021/11/11 08:49:53;;;;;;;25.77;5.10;;;16.20;99.90;;;;;;5071543;28;20176;-74
2021/11/11 08:52:21;;;;;;;18.20;3.77;;;16.10;99.90;;;;;;5058752;28;20547;-77
2021/11/11 08:54:50;;;;;;;17.40;3.27;;;16.10;99.90;;;;;;5071140;28;20417;-76
2021/11/11 08:57:20;;;;;;;14.83;3.37;;;16.10;99.90;;;;;;5070615;28;20210;-75
2021/11/11 08:59:52;;;;;;;17.60;2.80;;;16.10;99.90;;;;;;5070862;28;20674;-75
2021/11/11 09:02:21;;;;;;;13.97;3.13;;;16.10;99.90;;;;;;5072060;28;20191;-74
2021/11/11 09:04:51;;;;;;;20.30;3.40;;;16.10;99.90;;;;;;5071369;28;20289;-75
2021/11/11 09:07:21;;;;;;;17.47;3.70;;;16.10;99.90;;;;;;5071456;28;20246;-78
2021/11/11 09:09:49;;;;;;;16.60;4.10;;;16.00;99.90;;;;;;5072234;28;20179;-76
2021/11/11 09:12:16;;;;;;;15.07;3.30;;;16.00;99.90;;;;;;5071972;28;20284;-74
2021/11/11 09:14:44;;;;;;;19.90;4.83;;;16.00;99.90;;;;;;5065609;28;20187;-74
2021/11/11 09:17:12;;;;;;;16.70;4.07;;;16.00;99.90;;;;;;5071974;28;20191;-72
2021/11/11 09:19:40;;;;;;;22.40;4.20;;;16.00;99.90;;;;;;5071231;28;20187;-69
2021/11/11 09:22:07;;;;;;;20.77;4.07;;;16.00;99.90;;;;;;5071596;28;20183;-70
2021/11/11 09:24:34;;;;;;;13.37;4.40;;;15.90;99.90;;;;;;5072081;28;20226;-70
2021/11/11 09:27:02;;;;;;;16.93;4.03;;;15.90;99.90;;;;;;5071179;28;20610;-68
2021/11/11 09:29:29;;;;;;;17.30;3.23;;;15.90;99.90;;;;;;5071690;28;20203;-69
2021/11/11 09:31:56;;;;;;;16.73;3.30;;;15.80;99.90;;;;;;5071656;28;20706;-66
2021/11/11 09:34:24;;;;;;;15.03;3.57;;;15.90;99.90;;;;;;5072223;28;20178;-66
2021/11/11 09:36:51;;;;;;;24.10;4.00;;;15.90;99.90;;;;;;5071511;28;20192;-65
2021/11/11 09:39:18;;;;;;;18.60;4.73;;;15.90;99.90;;;;;;5071952;28;20179;-66
2021/11/11 09:41:47;;;;;;;26.07;5.03;;;15.90;99.90;;;;;;5071389;28;20195;-67
2021/11/11 09:44:14;;;;;;;16.60;3.93;;;15.90;99.90;;;;;;5068652;28;20182;-69
2021/11/11 09:46:41;;;;;;;18.37;3.97;;;15.80;99.90;;;;;;5071994;28;20213;-69
2021/11/11 09:49:08;;;;;;;22.87;4.73;;;15.80;99.90;;;;;;5073318;28;20171;-70
2021/11/11 09:51:40;;;;;;;21.73;4.23;;;15.70;99.90;;;;;;5074167;28;20235;-71
2021/11/11 09:58:34;;;;;;;21.57;3.77;;;15.60;99.90;;;;;;5067669;28;20548;-71
2021/11/11 09:59:43;;;;;;;26.43;3.97;;;15.50;99.90;;;;;;5075075;28;20189;-69
2021/11/11 10:02:12;;;;;;;27.23;4.43;;;15.50;99.90;;;;;;5075336;28;20180;-69
2021/11/11 10:04:39;;;;;;;19.83;4.07;;;15.40;99.90;;;;;;5075479;28;20233;-68
2021/11/11 10:07:07;;;;;;;16.53;4.73;;;15.50;99.90;;;;;;5074341;28;20257;-69
2021/11/11 10:09:46;;;;;;;26.70;5.80;;;15.40;99.90;;;;;;5075144;28;20580;-68
2021/11/11 10:12:21;;;;;;;23.30;4.80;;;15.40;99.90;;;;;;5074685;28;20228;-68
2021/11/11 10:15:05;;;;;;;17.57;3.20;;;15.40;99.90;;;;;;5074676;28;20345;-67
2021/11/11 10:17:41;;;;;;;33.37;9.73;;;15.30;99.90;;;;;;5074909;28;20176;-67
2021/11/11 10:20:10;;;;;;;24.87;4.93;;;15.30;99.90;;;;;;5074759;28;20202;-67
2021/11/11 10:22:41;;;;;;;18.90;4.20;;;15.30;99.90;;;;;;5074575;28;20183;-67
2021/11/11 10:25:12;;;;;;;19.87;3.97;;;15.30;99.90;;;;;;5074653;28;20566;-67
2021/11/11 10:27:48;;;;;;;26.30;5.10;;;15.30;99.90;;;;;;5074347;28;20206;-69
2021/11/11 10:30:23;;;;;;;25.37;3.97;;;15.30;99.90;;;;;;5075115;28;20522;-67
2021/11/11 10:32:54;;;;;;;24.33;4.47;;;15.30;99.90;;;;;;5073111;28;20178;-68
2021/11/11 10:35:26;;;;;;;21.53;4.97;;;15.30;99.90;;;;;;5074370;28;20186;-71
2021/11/11 10:38:01;;;;;;;27.20;4.70;;;15.20;99.90;;;;;;5074094;28;20235;-65
2021/11/11 10:40:35;;;;;;;26.57;4.83;;;15.30;99.90;;;;;;5074074;28;20195;-67
2021/11/11 10:43:10;;;;;;;23.83;4.47;;;15.20;99.90;;;;;;5074132;28;20168;-69
2021/11/11 10:45:43;;;;;;;27.20;4.90;;;15.20;99.90;;;;;;5073822;28;20207;-69
2021/11/11 10:48:13;;;;;;;29.10;5.37;;;15.20;99.90;;;;;;5074550;28;20236;-71
2021/11/11 10:50:45;;;;;;;26.30;5.07;;;15.30;99.90;;;;;;5074251;28;20175;-70
2021/11/11 10:53:22;;;;;;;23.43;5.43;;;15.30;99.90;;;;;;5074311;28;20179;-69
2021/11/11 10:55:52;;;;;;;34.97;5.20;;;15.30;99.90;;;;;;5070560;28;20198;-68
2021/11/11 10:58:31;;;;;;;20.23;4.67;;;15.20;99.90;;;;;;5074029;28;20175;-68
2021/11/11 11:01:06;;;;;;;32.13;5.50;;;15.30;99.90;;;;;;5072932;28;20645;-66
2021/11/11 11:03:42;;;;;;;22.93;3.90;;;15.20;99.90;;;;;;5074324;28;20190;-68
2021/11/11 11:06:15;;;;;;;26.30;4.60;;;15.20;99.90;;;;;;5073429;28;20210;-69
2021/11/11 11:08:49;;;;;;;24.50;5.13;;;15.20;99.90;;;;;;5054027;28;20524;-68
2021/11/11 11:11:21;;;;;;;22.67;5.03;;;15.20;99.90;;;;;;5054121;28;20255;-67
2021/11/11 11:14:02;;;;;;;24.27;3.77;;;15.20;99.90;;;;;;5068943;28;20219;-69
2021/11/11 11:16:36;;;;;;;16.57;4.20;;;15.20;99.90;;;;;;5070087;28;20681;-67
2021/11/11 11:19:08;;;;;;;16.77;3.80;;;15.20;99.90;;;;;;5074808;28;20187;-66
2021/11/11 11:21:40;;;;;;;14.70;4.37;;;15.20;99.90;;;;;;5073210;28;20183;-65
2021/11/11 11:24:14;;;;;;;21.63;4.87;;;15.20;99.90;;;;;;5072840;28;20179;-66
2021/11/11 11:27:00;;;;;;;26.80;4.93;;;15.20;99.90;;;;;;5073776;28;20206;-67
2021/11/11 11:29:43;;;;;;;23.53;3.93;;;15.30;99.90;;;;;;5073568;28;20254;-67
2021/11/11 11:32:19;;;;;;;26.27;4.43;;;15.20;99.90;;;;;;5062011;28;20207;-65
2021/11/11 11:34:49;;;;;;;16.73;4.80;;;15.10;99.90;;;;;;5071656;28;20692;-66
2021/11/11 11:37:29;;;;;;;20.93;4.63;;;15.10;99.90;;;;;;5072305;28;20182;-66
2021/11/11 11:39:58;;;;;;;17.33;3.50;;;15.10;99.90;;;;;;5073466;28;20520;-67
2021/11/11 11:42:38;;;;;;;11.37;3.40;;;14.90;99.90;;;;;;5073016;28;20190;-68
2021/11/11 11:45:11;;;;;;;19.73;3.90;;;14.90;99.90;;;;;;5057659;28;20184;-67
2021/11/11 11:47:51;;;;;;;17.10;3.93;;;14.90;99.90;;;;;;5072877;28;20232;-64
2021/11/11 11:50:49;;;;;;;23.93;3.80;;;14.90;99.90;;;;;;5070158;28;20175;-67
2021/11/11 11:53:22;;;;;;;18.67;4.10;;;14.80;99.90;;;;;;5072006;28;20196;-66
2021/11/11 11:55:57;;;;;;;20.03;4.83;;;14.80;99.90;;;;;;5058186;28;20613;-67
2021/11/11 11:59:01;;;;;;;19.30;3.93;;;14.70;99.90;;;;;;5053205;28;20179;-65
2021/11/11 12:14:55;;;;;;;16.63;2.83;;;14.10;99.90;;;;;;5073106;28;20175;-66
2021/11/11 12:34:34;;;;;;;16.83;3.13;;;13.80;99.90;;;;;;5072731;28;20202;-67
2021/11/11 12:40:04;;;;;;;17.37;4.40;;;13.80;99.90;;;;;;5072586;28;20252;-69
2021/11/11 12:42:56;;;;;;;19.27;3.87;;;13.80;99.90;;;;;;5072594;28;20179;-70
2021/11/11 12:45:30;;;;;;;12.37;2.90;;;13.80;99.90;;;;;;5071885;28;20198;-69
2021/11/11 12:48:09;;;;;;;24.67;3.50;;;13.80;99.90;;;;;;5072387;28;20186;-66
2021/11/11 12:51:01;;;;;;;19.50;2.90;;;13.80;99.90;;;;;;5070734;28;20175;-69
2021/11/11 12:53:41;;;;;;;27.20;2.87;;;13.60;99.90;;;;;;5070372;28;20187;-67
2021/11/11 12:56:17;;;;;;;12.23;2.67;;;13.60;99.90;;;;;;5072537;28;20181;-68
2021/11/11 12:58:55;;;;;;;15.70;2.30;;;13.60;99.90;;;;;;5071938;28;20190;-67
2021/11/11 13:01:35;;;;;;;15.33;2.17;;;13.60;99.90;;;;;;5072156;28;20179;-67
2021/11/11 13:04:03;;;;;;;10.63;2.17;;;13.50;99.90;;;;;;5072190;28;20221;-67
2021/11/11 13:06:41;;;;;;;14.00;2.37;;;13.60;99.90;;;;;;5067231;28;20227;-68
2021/11/11 13:09:11;;;;;;;21.30;2.40;;;13.60;99.90;;;;;;5066660;28;20514;-68
2021/11/11 13:11:45;;;;;;;20.03;2.60;;;13.60;99.90;;;;;;5051651;28;20183;-69
2021/11/11 13:14:22;;;;;;;15.43;2.43;;;13.60;99.90;;;;;;5068546;28;20182;-68
2021/11/11 13:16:55;;;;;;;13.40;2.53;;;13.50;99.90;;;;;;5070753;28;20542;-66
2021/11/11 13:19:33;;;;;;;14.37;1.77;;;13.60;99.90;;;;;;5072367;28;20181;-68
2021/11/11 13:22:08;;;;;;;9.30;1.77;;;13.60;99.90;;;;;;5070764;28;20298;-74
2021/11/11 13:28:01;;;;;;;10.60;2.00;;;13.60;99.90;;;;;;5076290;28;20230;-68
2021/11/11 15:16:49;;;;;;;13.70;1.63;;;14.20;99.90;;;;;;5074056;28;20270;-74
2021/11/11 15:20:00;;;;;;;14.60;2.40;;;14.20;99.90;;;;;;5073565;28;20633;-72
2021/11/11 16:26:27;;;;;;;10.30;1.60;;;14.70;99.90;;;;;;5031028;28;20216;-72
2021/11/11 16:29:00;;;;;;;16.07;2.40;;;14.70;99.90;;;;;;5051724;28;20187;-72
2021/11/11 16:31:28;;;;;;;11.10;2.00;;;14.70;99.90;;;;;;5072840;28;20564;-71
2021/11/11 16:33:58;;;;;;;20.63;2.00;;;14.70;99.90;;;;;;5072806;28;20193;-72
2021/11/11 16:36:27;;;;;;;10.47;2.03;;;14.70;99.90;;;;;;5072829;28;20211;-72
2021/11/11 16:38:54;;;;;;;15.80;1.73;;;14.70;99.90;;;;;;5072558;28;20172;-77